sensor_id;sensor_type;location;lat;lon;timestamp;pressure;altitude;pressure_sealevel;temperature;humidity
22440;BME280;11387;51.612;7.210;2023-02-14T00:01:50;102642.78;;;2.96;100.00
22440;BME280;11387;51.612;7.210;2023-02-14T00:04:20;102646.31;;;2.96;100.00
22440;BME280;11387;51.612;7.210;2023-02-14T00:06:48;102649.22;;;2.95;100.00
22440;BME280;11387;51.612;7.210;2023-02-14T00:09:18;102642.16;;;2.94;100.00
22440;BME280;11387;51.612;7.210;2023-02-14T00:11:47;102642.59;;;2.97;100.00
22440;BME280;11387;51.612;7.210;2023-02-14T00:14:15;102641.75;;;2.97;100.00
22440;BME280;11387;51.612;7.210;2023-02-14T00:17:01;102629.31;;;3.02;100.00
22440;BME280;11387;51.612;7.210;2023-02-14T00:19:30;102636.09;;;2.92;99.52
22440;BME280;11387;51.612;7.210;2023-02-14T00:22:00;102641.31;;;2.93;99.29
22440;BME280;11387;51.612;7.210;2023-02-14T00:24:29;102630.78;;;2.77;98.78
22440;BME280;11387;51.612;7.210;2023-02-14T00:26:58;102638.69;;;2.72;98.89
22440;BME280;11387;51.612;7.210;2023-02-14T00:29:29;102638.44;;;2.67;99.00
22440;BME280;11387;51.612;7.210;2023-02-14T00:31:59;102637.69;;;2.52;98.17
22440;BME280;11387;51.612;7.210;2023-02-14T00:34:28;102642.63;;;2.48;98.23
22440;BME280;11387;51.612;7.210;2023-02-14T00:36:57;102644.28;;;2.43;98.80
22440;BME280;11387;51.612;7.210;2023-02-14T00:39:26;102643.00;;;2.39;98.47
22440;BME280;11387;51.612;7.210;2023-02-14T00:41:55;102646.28;;;2.34;98.86
22440;BME280;11387;51.612;7.210;2023-02-14T00:44:23;102645.69;;;2.39;98.66
22440;BME280;11387;51.612;7.210;2023-02-14T00:46:52;102642.81;;;2.40;98.87
22440;BME280;11387;51.612;7.210;2023-02-14T00:49:20;102646.72;;;2.38;98.45
22440;BME280;11387;51.612;7.210;2023-02-14T00:51:48;102644.59;;;2.33;99.00
22440;BME280;11387;51.612;7.210;2023-02-14T00:54:18;102643.75;;;2.32;98.74
22440;BME280;11387;51.612;7.210;2023-02-14T00:56:47;102644.16;;;2.29;98.94
22440;BME280;11387;51.612;7.210;2023-02-14T00:59:15;102648.66;;;2.22;98.73
22440;BME280;11387;51.612;7.210;2023-02-14T01:01:43;102648.53;;;2.30;99.21
22440;BME280;11387;51.612;7.210;2023-02-14T01:04:12;102644.50;;;2.48;98.92
22440;BME280;11387;51.612;7.210;2023-02-14T01:06:41;102650.66;;;2.35;98.99
22440;BME280;11387;51.612;7.210;2023-02-14T01:09:09;102652.25;;;2.29;98.38
22440;BME280;11387;51.612;7.210;2023-02-14T01:11:39;102647.34;;;2.18;98.41
22440;BME280;11387;51.612;7.210;2023-02-14T01:14:07;102656.69;;;2.16;98.72
22440;BME280;11387;51.612;7.210;2023-02-14T01:16:37;102650.22;;;2.10;98.99
22440;BME280;11387;51.612;7.210;2023-02-14T01:19:06;102649.31;;;2.03;98.93
22440;BME280;11387;51.612;7.210;2023-02-14T01:21:35;102643.00;;;1.96;98.80
22440;BME280;11387;51.612;7.210;2023-02-14T01:24:05;102636.75;;;1.95;99.16
22440;BME280;11387;51.612;7.210;2023-02-14T01:26:34;102637.59;;;1.96;99.50
22440;BME280;11387;51.612;7.210;2023-02-14T01:29:04;102636.69;;;1.89;99.53
22440;BME280;11387;51.612;7.210;2023-02-14T01:31:34;102637.72;;;1.88;98.80
22440;BME280;11387;51.612;7.210;2023-02-14T01:34:03;102636.22;;;1.85;99.54
22440;BME280;11387;51.612;7.210;2023-02-14T01:36:34;102647.03;;;1.85;99.97
22440;BME280;11387;51.612;7.210;2023-02-14T01:39:05;102643.09;;;1.88;99.72
22440;BME280;11387;51.612;7.210;2023-02-14T01:41:36;102641.06;;;1.90;99.89
22440;BME280;11387;51.612;7.210;2023-02-14T01:44:49;102649.16;;;1.90;99.49
22440;BME280;11387;51.612;7.210;2023-02-14T01:46:57;102645.81;;;1.88;99.73
22440;BME280;11387;51.612;7.210;2023-02-14T01:49:30;102649.03;;;1.98;100.00
22440;BME280;11387;51.612;7.210;2023-02-14T01:52:04;102647.94;;;1.92;99.92
22440;BME280;11387;51.612;7.210;2023-02-14T01:54:39;102650.00;;;1.90;100.00
22440;BME280;11387;51.612;7.210;2023-02-14T01:57:10;102650.38;;;1.87;100.00
22440;BME280;11387;51.612;7.210;2023-02-14T01:59:45;102643.72;;;1.83;100.00
22440;BME280;11387;51.612;7.210;2023-02-14T02:02:16;102640.75;;;1.78;100.00
22440;BME280;11387;51.612;7.210;2023-02-14T02:04:52;102640.56;;;1.80;99.89
22440;BME280;11387;51.612;7.210;2023-02-14T02:07:24;102637.84;;;1.80;100.00
22440;BME280;11387;51.612;7.210;2023-02-14T02:09:57;102635.16;;;1.80;100.00
22440;BME280;11387;51.612;7.210;2023-02-14T02:12:27;102631.81;;;1.78;99.89
22440;BME280;11387;51.612;7.210;2023-02-14T02:14:57;102635.34;;;1.78;100.00
22440;BME280;11387;51.612;7.210;2023-02-14T02:17:31;102623.34;;;1.81;100.00
22440;BME280;11387;51.612;7.210;2023-02-14T02:23:25;102615.88;;;1.83;100.00
22440;BME280;11387;51.612;7.210;2023-02-14T02:26:17;102615.88;;;1.83;100.00
22440;BME280;11387;51.612;7.210;2023-02-14T02:35:11;102606.72;;;1.62;100.00
22440;BME280;11387;51.612;7.210;2023-02-14T02:37:56;102603.00;;;1.63;100.00
22440;BME280;11387;51.612;7.210;2023-02-14T02:40:38;102600.69;;;1.60;100.00
22440;BME280;11387;51.612;7.210;2023-02-14T02:43:21;102599.00;;;1.59;100.00
22440;BME280;11387;51.612;7.210;2023-02-14T02:46:00;102606.47;;;1.57;100.00
22440;BME280;11387;51.612;7.210;2023-02-14T02:48:54;102606.84;;;1.54;100.00
22440;BME280;11387;51.612;7.210;2023-02-14T02:51:34;102596.88;;;1.55;100.00
22440;BME280;11387;51.612;7.210;2023-02-14T02:54:28;102594.00;;;1.56;100.00
22440;BME280;11387;51.612;7.210;2023-02-14T02:57:03;102599.38;;;1.56;100.00
22440;BME280;11387;51.612;7.210;2023-02-14T02:59:35;102602.28;;;1.55;100.00
22440;BME280;11387;51.612;7.210;2023-02-14T03:02:08;102600.59;;;1.54;100.00
22440;BME280;11387;51.612;7.210;2023-02-14T03:04:41;102602.88;;;1.50;100.00
22440;BME280;11387;51.612;7.210;2023-02-14T03:07:33;102597.84;;;1.47;100.00
22440;BME280;11387;51.612;7.210;2023-02-14T03:10:07;102598.50;;;1.49;100.00
22440;BME280;11387;51.612;7.210;2023-02-14T03:15:50;102600.56;;;1.47;100.00
22440;BME280;11387;51.612;7.210;2023-02-14T03:18:43;102595.81;;;1.49;100.00
22440;BME280;11387;51.612;7.210;2023-02-14T03:21:23;102595.16;;;1.47;100.00
22440;BME280;11387;51.612;7.210;2023-02-14T03:23:57;102600.59;;;1.54;100.00
22440;BME280;11387;51.612;7.210;2023-02-14T03:26:34;102595.66;;;1.57;100.00
22440;BME280;11387;51.612;7.210;2023-02-14T03:29:11;102592.31;;;1.55;100.00
22440;BME280;11387;51.612;7.210;2023-02-14T03:31:48;102596.44;;;1.51;100.00
22440;BME280;11387;51.612;7.210;2023-02-14T03:34:24;102598.50;;;1.49;100.00
22440;BME280;11387;51.612;7.210;2023-02-14T03:36:57;102600.41;;;1.55;100.00
22440;BME280;11387;51.612;7.210;2023-02-14T03:39:34;102604.97;;;1.55;100.00
22440;BME280;11387;51.612;7.210;2023-02-14T03:42:09;102601.34;;;1.62;100.00
22440;BME280;11387;51.612;7.210;2023-02-14T03:44:40;102602.44;;;1.68;100.00
22440;BME280;11387;51.612;7.210;2023-02-14T03:47:11;102602.63;;;1.66;100.00
22440;BME280;11387;51.612;7.210;2023-02-14T03:49:44;102600.31;;;1.63;100.00
22440;BME280;11387;51.612;7.210;2023-02-14T03:52:14;102599.00;;;1.59;100.00
22440;BME280;11387;51.612;7.210;2023-02-14T03:54:46;102598.97;;;1.53;100.00
22440;BME280;11387;51.612;7.210;2023-02-14T03:57:22;102594.13;;;1.48;100.00
22440;BME280;11387;51.612;7.210;2023-02-14T03:59:52;102592.19;;;1.42;100.00
22440;BME280;11387;51.612;7.210;2023-02-14T04:02:24;102596.00;;;1.33;100.00
22440;BME280;11387;51.612;7.210;2023-02-14T04:04:55;102594.06;;;1.27;100.00
22440;BME280;11387;51.612;7.210;2023-02-14T04:07:26;102603.19;;;1.26;100.00
22440;BME280;11387;51.612;7.210;2023-02-14T04:09:56;102593.81;;;1.22;99.89
22440;BME280;11387;51.612;7.210;2023-02-14T04:12:24;102593.31;;;1.33;99.61
22440;BME280;11387;51.612;7.210;2023-02-14T04:15:05;102586.09;;;1.55;99.93
22440;BME280;11387;51.612;7.210;2023-02-14T04:17:34;102587.84;;;1.62;99.79
22440;BME280;11387;51.612;7.210;2023-02-14T04:20:20;102593.78;;;1.73;100.00
22440;BME280;11387;51.612;7.210;2023-02-14T04:22:49;102586.28;;;1.53;99.87
22440;BME280;11387;51.612;7.210;2023-02-14T04:25:21;102587.81;;;1.41;99.42
22440;BME280;11387;51.612;7.210;2023-02-14T04:27:49;102588.22;;;1.23;99.27
22440;BME280;11387;51.612;7.210;2023-02-14T04:30:18;102587.38;;;1.23;99.04
22440;BME280;11387;51.612;7.210;2023-02-14T04:32:47;102580.25;;;1.15;98.99
22440;BME280;11387;51.612;7.210;2023-02-14T04:35:16;102587.22;;;1.10;99.06
22440;BME280;11387;51.612;7.210;2023-02-14T04:37:44;102584.91;;;1.07;99.64
22440;BME280;11387;51.612;7.210;2023-02-14T04:40:13;102582.50;;;0.97;99.59
22440;BME280;11387;51.612;7.210;2023-02-14T04:42:45;102575.16;;;1.06;99.19
22440;BME280;11387;51.612;7.210;2023-02-14T04:45:13;102575.25;;;0.97;99.25
22440;BME280;11387;51.612;7.210;2023-02-14T04:47:42;102578.31;;;0.94;99.83
22440;BME280;11387;51.612;7.210;2023-02-14T04:50:11;102576.63;;;0.93;99.86
22440;BME280;11387;51.612;7.210;2023-02-14T04:52:39;102565.84;;;0.93;99.60
22440;BME280;11387;51.612;7.210;2023-02-14T04:55:09;102566.78;;;1.00;99.66
22440;BME280;11387;51.612;7.210;2023-02-14T04:57:37;102565.75;;;1.01;99.96
22440;BME280;11387;51.612;7.210;2023-02-14T05:00:08;102565.00;;;0.93;100.00
22440;BME280;11387;51.612;7.210;2023-02-14T05:02:37;102570.41;;;0.93;99.86
22440;BME280;11387;51.612;7.210;2023-02-14T05:05:06;102564.84;;;0.94;99.22
22440;BME280;11387;51.612;7.210;2023-02-14T05:07:34;102558.41;;;0.95;99.25
22440;BME280;11387;51.612;7.210;2023-02-14T05:10:03;102549.78;;;1.00;99.12
22440;BME280;11387;51.612;7.210;2023-02-14T05:12:32;102553.88;;;0.96;99.48
22440;BME280;11387;51.612;7.210;2023-02-14T05:15:00;102542.63;;;0.92;99.28
22440;BME280;11387;51.612;7.210;2023-02-14T05:17:30;102550.09;;;0.90;99.37
22440;BME280;11387;51.612;7.210;2023-02-14T05:19:59;102544.13;;;0.80;99.74
22440;BME280;11387;51.612;7.210;2023-02-14T05:22:27;102546.91;;;0.72;99.26
22440;BME280;11387;51.612;7.210;2023-02-14T05:24:55;102546.00;;;0.65;99.56
22440;BME280;11387;51.612;7.210;2023-02-14T05:27:24;102547.59;;;0.59;99.59
22440;BME280;11387;51.612;7.210;2023-02-14T05:29:52;102546.00;;;0.65;99.66
22440;BME280;11387;51.612;7.210;2023-02-14T05:32:21;102538.94;;;0.64;99.57
22440;BME280;11387;51.612;7.210;2023-02-14T05:34:51;102543.78;;;0.83;99.90
22440;BME280;11387;51.612;7.210;2023-02-14T05:37:19;102533.75;;;0.77;99.69
22440;BME280;11387;51.612;7.210;2023-02-14T05:39:48;102537.44;;;0.76;99.34
22440;BME280;11387;51.612;7.210;2023-02-14T05:42:16;102530.47;;;0.67;99.45
22440;BME280;11387;51.612;7.210;2023-02-14T05:44:45;102530.03;;;0.78;99.44
22440;BME280;11387;51.612;7.210;2023-02-14T05:47:14;102540.69;;;0.86;99.59
22440;BME280;11387;51.612;7.210;2023-02-14T05:49:43;102537.09;;;0.79;99.57
22440;BME280;11387;51.612;7.210;2023-02-14T05:52:13;102534.56;;;0.63;99.55
22440;BME280;11387;51.612;7.210;2023-02-14T05:54:41;102532.34;;;0.66;99.48
22440;BME280;11387;51.612;7.210;2023-02-14T05:57:09;102538.75;;;0.65;99.47
22440;BME280;11387;51.612;7.210;2023-02-14T05:59:38;102534.56;;;0.63;99.74
22440;BME280;11387;51.612;7.210;2023-02-14T06:02:06;102539.59;;;0.51;99.39
22440;BME280;11387;51.612;7.210;2023-02-14T06:04:35;102533.63;;;0.71;99.43
22440;BME280;11387;51.612;7.210;2023-02-14T06:07:04;102540.97;;;0.77;99.93
22440;BME280;11387;51.612;7.210;2023-02-14T06:09:34;102537.34;;;0.70;99.71
22440;BME280;11387;51.612;7.210;2023-02-14T06:12:02;102536.53;;;0.69;99.69
22440;BME280;11387;51.612;7.210;2023-02-14T06:14:31;102549.69;;;0.64;99.77
22440;BME280;11387;51.612;7.210;2023-02-14T06:16:59;102550.91;;;0.61;99.28
22440;BME280;11387;51.612;7.210;2023-02-14T06:19:28;102557.69;;;0.72;99.58
22440;BME280;11387;51.612;7.210;2023-02-14T06:21:56;102564.75;;;0.73;99.49
22440;BME280;11387;51.612;7.210;2023-02-14T06:24:25;102562.50;;;0.62;99.06
22440;BME280;11387;51.612;7.210;2023-02-14T06:26:54;102561.59;;;0.55;99.29
22440;BME280;11387;51.612;7.210;2023-02-14T06:29:23;102562.72;;;0.46;99.01
22440;BME280;11387;51.612;7.210;2023-02-14T06:31:52;102570.72;;;0.54;99.14
22440;BME280;11387;51.612;7.210;2023-02-14T06:34:22;102576.00;;;0.47;99.38
22440;BME280;11387;51.612;7.210;2023-02-14T06:36:50;102572.16;;;0.42;99.36
22440;BME280;11387;51.612;7.210;2023-02-14T06:39:19;102575.50;;;0.44;99.78
22440;BME280;11387;51.612;7.210;2023-02-14T06:41:48;102574.13;;;0.48;99.36
22440;BME280;11387;51.612;7.210;2023-02-14T06:44:18;102572.94;;;0.50;99.70
22440;BME280;11387;51.612;7.210;2023-02-14T06:46:47;102582.22;;;0.48;99.72
22440;BME280;11387;51.612;7.210;2023-02-14T06:49:15;102580.16;;;0.50;99.80
22440;BME280;11387;51.612;7.210;2023-02-14T06:51:44;102582.09;;;0.41;100.00
22440;BME280;11387;51.612;7.210;2023-02-14T06:54:12;102590.09;;;0.49;100.00
22440;BME280;11387;51.612;7.210;2023-02-14T06:56:41;102591.88;;;0.57;100.00
22440;BME280;11387;51.612;7.210;2023-02-14T06:59:09;102588.84;;;0.60;100.00
22440;BME280;11387;51.612;7.210;2023-02-14T07:01:39;102590.38;;;0.69;100.00
22440;BME280;11387;51.612;7.210;2023-02-14T07:04:08;102598.75;;;0.74;100.00
22440;BME280;11387;51.612;7.210;2023-02-14T07:06:36;102590.97;;;0.79;100.00
22440;BME280;11387;51.612;7.210;2023-02-14T07:09:05;102595.44;;;0.87;100.00
22440;BME280;11387;51.612;7.210;2023-02-14T07:11:33;102598.75;;;1.04;100.00
22440;BME280;11387;51.612;7.210;2023-02-14T07:14:02;102595.91;;;1.41;100.00
22440;BME280;11387;51.612;7.210;2023-02-14T07:16:30;102590.75;;;2.03;100.00
22440;BME280;11387;51.612;7.210;2023-02-14T07:19:00;102597.25;;;2.65;100.00
22440;BME280;11387;51.612;7.210;2023-02-14T07:21:29;102593.78;;;3.66;100.00
22440;BME280;11387;51.612;7.210;2023-02-14T07:23:57;102592.06;;;4.97;100.00
22440;BME280;11387;51.612;7.210;2023-02-14T07:26:26;102585.88;;;6.11;100.00
22440;BME280;11387;51.612;7.210;2023-02-14T07:28:54;102603.25;;;7.33;89.26
22440;BME280;11387;51.612;7.210;2023-02-14T07:31:23;102587.72;;;8.58;81.19
22440;BME280;11387;51.612;7.210;2023-02-14T07:33:53;102584.16;;;9.73;71.92
22440;BME280;11387;51.612;7.210;2023-02-14T07:36:23;102583.66;;;10.55;66.25
22440;BME280;11387;51.612;7.210;2023-02-14T07:38:52;102583.66;;;11.37;63.72
22440;BME280;11387;51.612;7.210;2023-02-14T07:41:20;102583.47;;;12.19;57.82
22440;BME280;11387;51.612;7.210;2023-02-14T07:43:48;102571.84;;;12.91;55.25
22440;BME280;11387;51.612;7.210;2023-02-14T07:46:17;102567.72;;;13.41;49.31
22440;BME280;11387;51.612;7.210;2023-02-14T07:48:46;102562.03;;;13.88;47.99
22440;BME280;11387;51.612;7.210;2023-02-14T07:51:14;102573.34;;;14.22;45.77
22440;BME280;11387;51.612;7.210;2023-02-14T07:53:44;102566.69;;;14.69;43.59
22440;BME280;11387;51.612;7.210;2023-02-14T07:56:13;102571.75;;;15.26;42.31
22440;BME280;11387;51.612;7.210;2023-02-14T07:58:41;102574.34;;;15.62;42.73
22440;BME280;11387;51.612;7.210;2023-02-14T08:01:10;102578.69;;;16.46;41.64
22440;BME280;11387;51.612;7.210;2023-02-14T08:03:38;102566.13;;;17.11;38.83
22440;BME280;11387;51.612;7.210;2023-02-14T08:06:07;102567.78;;;18.06;38.15
22440;BME280;11387;51.612;7.210;2023-02-14T08:08:35;102566.28;;;18.46;36.43
22440;BME280;11387;51.612;7.210;2023-02-14T08:11:05;102565.84;;;18.99;35.44
22440;BME280;11387;51.612;7.210;2023-02-14T08:13:34;102567.59;;;19.23;34.63
22440;BME280;11387;51.612;7.210;2023-02-14T08:16:02;102566.97;;;18.98;35.13
22440;BME280;11387;51.612;7.210;2023-02-14T08:18:37;102565.13;;;19.21;35.02
22440;BME280;11387;51.612;7.210;2023-02-14T08:21:08;102563.13;;;19.63;33.54
22440;BME280;11387;51.612;7.210;2023-02-14T08:23:37;102566.03;;;20.69;32.84
22440;BME280;11387;51.612;7.210;2023-02-14T08:26:07;102563.38;;;21.61;31.58
22440;BME280;11387;51.612;7.210;2023-02-14T08:28:35;102561.72;;;22.29;29.73
22440;BME280;11387;51.612;7.210;2023-02-14T08:31:04;102548.47;;;22.64;29.29
22440;BME280;11387;51.612;7.210;2023-02-14T08:33:33;102550.16;;;23.24;29.33
22440;BME280;11387;51.612;7.210;2023-02-14T08:36:02;102557.53;;;23.58;27.95
22440;BME280;11387;51.612;7.210;2023-02-14T08:38:31;102555.94;;;23.90;27.98
22440;BME280;11387;51.612;7.210;2023-02-14T08:40:59;102557.19;;;24.34;27.54
22440;BME280;11387;51.612;7.210;2023-02-14T08:43:35;102560.38;;;24.57;26.99
22440;BME280;11387;51.612;7.210;2023-02-14T08:46:04;102558.09;;;25.32;26.02
22440;BME280;11387;51.612;7.210;2023-02-14T08:48:33;102564.28;;;25.90;25.40
22440;BME280;11387;51.612;7.210;2023-02-14T08:51:06;102553.69;;;26.55;23.95
22440;BME280;11387;51.612;7.210;2023-02-14T08:53:34;102554.41;;;26.99;23.34
22440;BME280;11387;51.612;7.210;2023-02-14T08:56:04;102553.72;;;27.56;22.22
22440;BME280;11387;51.612;7.210;2023-02-14T08:58:35;102557.03;;;27.97;22.09
22440;BME280;11387;51.612;7.210;2023-02-14T09:01:07;102549.69;;;28.11;21.56
22440;BME280;11387;51.612;7.210;2023-02-14T09:03:36;102552.19;;;27.24;21.38
22440;BME280;11387;51.612;7.210;2023-02-14T09:06:07;102551.09;;;27.82;21.26
22440;BME280;11387;51.612;7.210;2023-02-14T09:08:37;102545.25;;;27.72;21.45
22440;BME280;11387;51.612;7.210;2023-02-14T09:11:07;102542.59;;;26.93;21.95
22440;BME280;11387;51.612;7.210;2023-02-14T09:13:36;102546.56;;;25.73;22.66
22440;BME280;11387;51.612;7.210;2023-02-14T09:16:06;102540.00;;;25.81;22.88
22440;BME280;11387;51.612;7.210;2023-02-14T09:18:36;102544.22;;;26.03;22.88
22440;BME280;11387;51.612;7.210;2023-02-14T09:21:06;102538.09;;;26.41;22.06
22440;BME280;11387;51.612;7.210;2023-02-14T09:23:35;102537.53;;;26.67;21.45
22440;BME280;11387;51.612;7.210;2023-02-14T09:26:06;102538.25;;;25.37;23.18
22440;BME280;11387;51.612;7.210;2023-02-14T09:28:36;102537.44;;;24.88;23.88
22440;BME280;11387;51.612;7.210;2023-02-14T09:31:09;102534.50;;;24.60;23.89
22440;BME280;11387;51.612;7.210;2023-02-14T09:33:41;102528.34;;;25.27;23.66
22440;BME280;11387;51.612;7.210;2023-02-14T09:36:28;102523.41;;;24.06;24.62
22440;BME280;11387;51.612;7.210;2023-02-14T09:38:56;102518.41;;;24.69;24.54
22440;BME280;11387;51.612;7.210;2023-02-14T09:41:56;102513.63;;;23.79;25.55
22440;BME280;11387;51.612;7.210;2023-02-14T09:44:33;102518.63;;;24.06;25.84
22440;BME280;11387;51.612;7.210;2023-02-14T09:47:08;102513.50;;;24.90;24.04
22440;BME280;11387;51.612;7.210;2023-02-14T09:49:39;102513.91;;;26.09;22.31
22440;BME280;11387;51.612;7.210;2023-02-14T09:52:11;102507.25;;;27.43;21.30
22440;BME280;11387;51.612;7.210;2023-02-14T09:54:46;102513.34;;;27.10;21.40
22440;BME280;11387;51.612;7.210;2023-02-14T09:57:23;102520.22;;;26.34;22.08
22440;BME280;11387;51.612;7.210;2023-02-14T10:00:03;102504.38;;;27.39;20.41
22440;BME280;11387;51.612;7.210;2023-02-14T10:02:38;102508.34;;;27.38;20.58
22440;BME280;11387;51.612;7.210;2023-02-14T10:05:14;102500.63;;;27.70;20.42
22440;BME280;11387;51.612;7.210;2023-02-14T10:07:59;102502.19;;;27.68;21.27
22440;BME280;11387;51.612;7.210;2023-02-14T10:10:36;102504.19;;;27.67;21.04
22440;BME280;11387;51.612;7.210;2023-02-14T10:13:11;102508.38;;;26.72;21.53
22440;BME280;11387;51.612;7.210;2023-02-14T10:15:47;102506.22;;;27.90;20.93
22440;BME280;11387;51.612;7.210;2023-02-14T10:18:19;102500.72;;;27.20;21.92
22440;BME280;11387;51.612;7.210;2023-02-14T10:20:52;102502.09;;;26.94;21.82
22440;BME280;11387;51.612;7.210;2023-02-14T10:23:28;102501.63;;;26.92;22.10
22440;BME280;11387;51.612;7.210;2023-02-14T10:26:00;102505.66;;;27.61;20.84
22440;BME280;11387;51.612;7.210;2023-02-14T10:28:31;102507.47;;;26.99;21.79
22440;BME280;11387;51.612;7.210;2023-02-14T10:31:16;102508.09;;;27.63;21.21
22440;BME280;11387;51.612;7.210;2023-02-14T10:33:52;102495.03;;;29.07;19.60
22440;BME280;11387;51.612;7.210;2023-02-14T10:36:34;102498.75;;;30.49;18.14
22440;BME280;11387;51.612;7.210;2023-02-14T10:39:15;102501.13;;;29.69;18.76
22440;BME280;11387;51.612;7.210;2023-02-14T10:41:51;102504.97;;;29.54;19.01
22440;BME280;11387;51.612;7.210;2023-02-14T10:44:34;102504.00;;;29.43;19.26
22440;BME280;11387;51.612;7.210;2023-02-14T10:47:27;102496.16;;;30.74;18.00
22440;BME280;11387;51.612;7.210;2023-02-14T10:50:02;102496.78;;;29.45;19.08
22440;BME280;11387;51.612;7.210;2023-02-14T10:52:39;102493.59;;;29.47;19.06
22440;BME280;11387;51.612;7.210;2023-02-14T10:55:17;102492.50;;;29.55;19.07
22440;BME280;11387;51.612;7.210;2023-02-14T10:58:01;102493.22;;;27.81;20.51
22440;BME280;11387;51.612;7.210;2023-02-14T11:00:32;102483.53;;;27.05;21.40
22440;BME280;11387;51.612;7.210;2023-02-14T11:03:06;102486.03;;;28.49;20.55
22440;BME280;11387;51.612;7.210;2023-02-14T11:05:38;102479.09;;;30.15;19.25
22440;BME280;11387;51.612;7.210;2023-02-14T11:08:21;102473.00;;;29.76;19.18
22440;BME280;11387;51.612;7.210;2023-02-14T11:10:52;102476.16;;;28.59;20.08
22440;BME280;11387;51.612;7.210;2023-02-14T11:13:26;102463.88;;;28.97;19.32
22440;BME280;11387;51.612;7.210;2023-02-14T11:15:58;102466.13;;;30.11;18.23
22440;BME280;11387;51.612;7.210;2023-02-14T11:18:31;102460.06;;;29.12;19.59
22440;BME280;11387;51.612;7.210;2023-02-14T11:21:06;102457.47;;;28.24;20.30
22440;BME280;11387;51.612;7.210;2023-02-14T11:23:38;102457.03;;;28.71;19.68
22440;BME280;11387;51.612;7.210;2023-02-14T11:26:16;102451.19;;;27.69;20.55
22440;BME280;11387;51.612;7.210;2023-02-14T11:28:54;102436.63;;;29.34;19.53
22440;BME280;11387;51.612;7.210;2023-02-14T11:31:26;102435.41;;;31.08;18.42
22440;BME280;11387;51.612;7.210;2023-02-14T11:33:57;102439.84;;;32.35;17.29
22440;BME280;11387;51.612;7.210;2023-02-14T11:36:30;102434.53;;;33.78;15.32
22440;BME280;11387;51.612;7.210;2023-02-14T11:39:04;102434.97;;;34.76;15.02
22440;BME280;11387;51.612;7.210;2023-02-14T11:41:49;102432.41;;;33.12;15.38
22440;BME280;11387;51.612;7.210;2023-02-14T11:44:19;102421.19;;;32.41;16.18
22440;BME280;11387;51.612;7.210;2023-02-14T11:46:50;102419.66;;;30.01;17.71
22440;BME280;11387;51.612;7.210;2023-02-14T11:49:30;102417.69;;;29.35;18.42
22440;BME280;11387;51.612;7.210;2023-02-14T11:52:07;102410.09;;;30.13;18.05
22440;BME280;11387;51.612;7.210;2023-02-14T11:54:38;102395.63;;;30.18;17.73
22440;BME280;11387;51.612;7.210;2023-02-14T11:57:11;102390.69;;;31.32;17.81
22440;BME280;11387;51.612;7.210;2023-02-14T11:59:42;102389.63;;;29.45;18.54
22440;BME280;11387;51.612;7.210;2023-02-14T12:02:29;102393.66;;;29.44;18.93
22440;BME280;11387;51.612;7.210;2023-02-14T12:05:03;102390.34;;;28.53;20.14
22440;BME280;11387;51.612;7.210;2023-02-14T12:07:35;102388.75;;;27.02;21.43
22440;BME280;11387;51.612;7.210;2023-02-14T12:10:20;102388.50;;;27.92;20.95
22440;BME280;11387;51.612;7.210;2023-02-14T12:12:51;102385.09;;;27.79;20.55
22440;BME280;11387;51.612;7.210;2023-02-14T12:15:24;102378.66;;;30.73;17.79
22440;BME280;11387;51.612;7.210;2023-02-14T12:17:59;102371.84;;;32.21;17.34
22440;BME280;11387;51.612;7.210;2023-02-14T12:20:37;102375.75;;;32.95;16.51
22440;BME280;11387;51.612;7.210;2023-02-14T12:23:14;102369.72;;;30.64;17.48
22440;BME280;11387;51.612;7.210;2023-02-14T12:25:49;102364.44;;;31.42;17.34
22440;BME280;11387;51.612;7.210;2023-02-14T12:28:23;102367.50;;;31.01;16.96
22440;BME280;11387;51.612;7.210;2023-02-14T12:30:57;102359.09;;;30.46;18.42
22440;BME280;11387;51.612;7.210;2023-02-14T12:33:26;102361.31;;;32.04;17.56
22440;BME280;11387;51.612;7.210;2023-02-14T12:36:02;102349.22;;;30.74;17.49
22440;BME280;11387;51.612;7.210;2023-02-14T12:38:40;102349.97;;;31.83;16.88
22440;BME280;11387;51.612;7.210;2023-02-14T12:41:23;102347.13;;;33.48;15.59
22440;BME280;11387;51.612;7.210;2023-02-14T12:43:53;102346.94;;;35.00;14.17
22440;BME280;11387;51.612;7.210;2023-02-14T12:46:47;102342.75;;;35.92;13.31
22440;BME280;11387;51.612;7.210;2023-02-14T12:49:32;102337.13;;;35.35;13.81
22440;BME280;11387;51.612;7.210;2023-02-14T12:52:15;102338.88;;;35.25;13.98
22440;BME280;11387;51.612;7.210;2023-02-14T12:54:59;102326.19;;;34.28;14.59
22440;BME280;11387;51.612;7.210;2023-02-14T12:57:40;102334.31;;;34.29;14.61
22440;BME280;11387;51.612;7.210;2023-02-14T13:00:20;102330.56;;;31.92;16.30
22440;BME280;11387;51.612;7.210;2023-02-14T13:03:10;102327.81;;;29.30;18.36
22440;BME280;11387;51.612;7.210;2023-02-14T13:05:53;102317.25;;;26.65;21.26
22440;BME280;11387;51.612;7.210;2023-02-14T13:08:42;102313.97;;;22.10;27.51
22440;BME280;11387;51.612;7.210;2023-02-14T13:11:20;102319.78;;;20.63;29.77
22440;BME280;11387;51.612;7.210;2023-02-14T13:13:57;102315.03;;;20.07;31.10
22440;BME280;11387;51.612;7.210;2023-02-14T13:16:35;102313.91;;;21.80;28.88
22440;BME280;11387;51.612;7.210;2023-02-14T13:19:16;102311.34;;;23.96;25.81
22440;BME280;11387;51.612;7.210;2023-02-14T13:21:51;102297.34;;;25.40;24.09
22440;BME280;11387;51.612;7.210;2023-02-14T13:24:26;102299.47;;;25.91;23.42
22440;BME280;11387;51.612;7.210;2023-02-14T13:27:06;102296.31;;;26.59;22.15
22440;BME280;11387;51.612;7.210;2023-02-14T13:29:41;102293.75;;;28.22;21.01
22440;BME280;11387;51.612;7.210;2023-02-14T13:32:14;102293.31;;;28.46;20.02
22440;BME280;11387;51.612;7.210;2023-02-14T13:34:46;102288.34;;;28.96;19.78